Time;durP1;ratioP1;P1;durP2;ratioP2;P2;SDS_P1;SDS_P2;PMS_P1;PMS_P2;Temp;Humidity;BMP_temperature;BMP_pressure;BME280_temperature;BME280_humidity;BME280_pressure;Samples;Min_cycle;Max_cycle;Signal;HPM_P1;HPM_P2
2022/04/15 00:02:24;;;;;;;22.88;4.68;;;;;;;;;;5011316;28;20030;-44
2022/04/15 00:04:51;;;;;;;23.15;4.72;;;;;;;;;;5010158;28;20112;-44
2022/04/15 00:07:18;;;;;;;24.75;4.38;;;;;;;;;;5022328;28;20479;-44
2022/04/15 00:09:45;;;;;;;21.27;4.20;;;;;;;;;;5010344;28;20037;-44
2022/04/15 00:12:17;;;;;;;29.05;5.22;;;;;;;;;;5028750;28;20045;-43
2022/04/15 00:14:44;;;;;;;;;;;;;;;;;;5013889;28;20053;-42
2022/04/15 00:17:12;;;;;;;26.58;5.25;;;;;;;;;;5011467;28;19996;-40
2022/04/15 00:19:39;;;;;;;15.00;4.03;;;;;;;;;;5002450;28;20532;-41
2022/04/15 00:22:06;;;;;;;26.48;5.25;;;;;;;;;;5011737;28;20539;-38
2022/04/15 00:24:33;;;;;;;19.67;4.60;;;;;;;;;;5013851;28;20021;-45
2022/04/15 00:27:00;;;;;;;17.65;4.50;;;;;;;;;;5011137;28;20056;-49
2022/04/15 00:29:28;;;;;;;24.55;4.78;;;;;;;;;;5010861;28;20113;-49
2022/04/15 00:31:55;;;;;;;17.98;4.40;;;;;;;;;;5009502;28;20159;-46
2022/04/15 00:34:22;;;;;;;17.95;4.13;;;;;;;;;;5011365;28;20168;-48
2022/04/15 00:36:49;;;;;;;18.38;4.07;;;;;;;;;;5007429;28;20033;-51
2022/04/15 00:39:16;;;;;;;21.00;4.70;;;;;;;;;;5012668;28;20037;-46
2022/04/15 00:41:43;;;;;;;17.77;4.47;;;;;;;;;;5012828;28;20040;-45
2022/04/15 00:44:10;;;;;;;17.42;4.15;;;;;;;;;;5012484;28;20033;-46
2022/04/15 00:46:37;;;;;;;12.77;4.00;;;;;;;;;;5013004;28;20040;-46
2022/04/15 00:49:04;;;;;;;15.63;3.78;;;;;;;;;;4995248;28;20112;-46
2022/04/15 00:51:33;;;;;;;20.00;4.13;;;;;;;;;;5012444;28;20037;-45
2022/04/15 00:54:00;;;;;;;15.95;3.95;;;;;;;;;;5012628;28;20036;-44
2022/04/15 00:56:29;;;;;;;17.30;4.20;;;;;;;;;;5012050;28;20408;-43
2022/04/15 00:58:57;;;;;;;16.30;3.97;;;;;;;;;;5011448;28;20034;-43
2022/04/15 01:01:24;;;;;;;16.30;3.97;;;;;;;;;;5012668;28;20052;-43
2022/04/15 01:03:51;;;;;;;19.50;4.70;;;;;;;;;;5012248;28;20092;-44
2022/04/15 01:06:18;;;;;;;12.93;3.83;;;;;;;;;;5011962;28;20503;-43
2022/04/15 01:08:46;;;;;;;10.38;3.35;;;;;;;;;;4994472;28;20037;-43
2022/04/15 01:11:13;;;;;;;8.85;2.85;;;;;;;;;;5012031;28;20068;-44
2022/04/15 01:13:41;;;;;;;17.17;3.17;;;;;;;;;;5012053;28;20072;-44
2022/04/15 01:16:09;;;;;;;13.63;3.03;;;;;;;;;;4994735;28;20538;-44
2022/04/15 01:18:36;;;;;;;12.70;3.58;;;;;;;;;;5012074;28;20037;-42
2022/04/15 01:21:04;;;;;;;13.70;3.35;;;;;;;;;;5011959;28;20030;-42
2022/04/15 01:23:31;;;;;;;15.15;3.58;;;;;;;;;;4994599;28;20121;-44
2022/04/15 01:25:58;;;;;;;12.68;3.22;;;;;;;;;;5012000;28;20727;-44
2022/04/15 01:28:25;;;;;;;13.00;2.85;;;;;;;;;;4994227;28;20038;-42
2022/04/15 01:30:52;;;;;;;12.25;2.92;;;;;;;;;;5011849;28;20061;-43
2022/04/15 01:33:19;;;;;;;13.20;3.30;;;;;;;;;;5001692;28;20030;-42
2022/04/15 01:35:46;;;;;;;11.77;2.97;;;;;;;;;;4992256;28;20026;-44
2022/04/15 01:38:17;;;;;;;13.07;3.03;;;;;;;;;;4992455;28;20038;-44
2022/04/15 01:40:44;;;;;;;11.68;3.42;;;;;;;;;;5001330;28;20033;-45
2022/04/15 01:43:11;;;;;;;14.68;2.90;;;;;;;;;;5010692;28;20365;-48
2022/04/15 01:45:39;;;;;;;12.13;2.90;;;;;;;;;;5010790;28;20040;-52
2022/04/15 01:48:06;;;;;;;10.80;3.08;;;;;;;;;;5007370;28;20018;-51
2022/04/15 01:50:33;;;;;;;15.80;5.07;;;;;;;;;;5009664;28;20029;-43
2022/04/15 01:53:00;;;;;;;21.38;6.18;;;;;;;;;;4991504;28;20033;-48
2022/04/15 01:55:28;;;;;;;19.05;6.70;;;;;;;;;;5009800;28;20033;-48
2022/04/15 01:57:55;;;;;;;23.08;8.68;;;;;;;;;;5009441;28;20026;-42
2022/04/15 02:00:23;;;;;;;28.67;10.60;;;;;;;;;;5009732;28;20037;-42
2022/04/15 02:02:50;;;;;;;30.50;10.35;;;;;;;;;;5009967;28;20431;-43
2022/04/15 02:05:18;;;;;;;30.38;11.38;;;;;;;;;;5009711;28;20077;-46
2022/04/15 02:07:45;;;;;;;30.75;10.63;;;;;;;;;;5008866;28;20033;-44
2022/04/15 02:10:12;;;;;;;30.85;11.20;;;;;;;;;;4990155;28;20056;-45
2022/04/15 02:12:40;;;;;;;35.78;11.75;;;;;;;;;;5009162;28;20042;-44
2022/04/15 02:15:08;;;;;;;26.33;10.45;;;;;;;;;;4991661;28;20450;-41
2022/04/15 02:17:35;;;;;;;36.15;10.45;;;;;;;;;;5009379;28;20036;-41
2022/04/15 02:20:02;;;;;;;34.85;10.65;;;;;;;;;;5009347;28;20044;-41
2022/04/15 02:22:29;;;;;;;34.10;10.30;;;;;;;;;;5009284;28;20034;-45
2022/04/15 02:24:57;;;;;;;29.42;9.75;;;;;;;;;;5009467;28;20439;-41
2022/04/15 02:27:24;;;;;;;32.00;10.65;;;;;;;;;;5009542;28;20064;-45
2022/04/15 02:29:51;;;;;;;32.90;10.00;;;;;;;;;;4991132;28;20030;-46
2022/04/15 02:32:19;;;;;;;24.20;8.65;;;;;;;;;;5009488;28;20395;-42
2022/04/15 02:34:46;;;;;;;19.77;8.35;;;;;;;;;;5009138;28;20045;-45
2022/04/15 02:37:14;;;;;;;26.08;9.32;;;;;;;;;;5009386;28;20037;-43
2022/04/15 02:39:41;;;;;;;25.05;7.65;;;;;;;;;;5009046;28;20064;-44
2022/04/15 02:42:09;;;;;;;24.92;7.47;;;;;;;;;;5009305;28;20550;-43
2022/04/15 02:44:38;;;;;;;24.75;7.65;;;;;;;;;;5009552;28;20064;-43
2022/04/15 02:47:06;;;;;;;19.15;6.50;;;;;;;;;;5013520;28;20084;-44
2022/04/15 02:49:34;;;;;;;18.90;7.53;;;;;;;;;;5012892;28;20092;-44
2022/04/15 02:52:01;;;;;;;17.33;6.88;;;;;;;;;;5012527;28;20065;-42
2022/04/15 02:54:28;;;;;;;15.30;6.47;;;;;;;;;;5011805;28;20117;-41
2022/04/15 02:56:56;;;;;;;14.73;5.85;;;;;;;;;;5010488;28;20057;-43
2022/04/15 02:59:23;;;;;;;15.10;6.18;;;;;;;;;;5011234;28;20065;-44
2022/04/15 03:01:50;;;;;;;17.25;6.45;;;;;;;;;;5011673;28;20583;-42
2022/04/15 03:04:18;;;;;;;18.42;6.53;;;;;;;;;;5012568;28;20118;-44
2022/04/15 03:06:45;;;;;;;19.73;6.57;;;;;;;;;;5012367;28;20038;-43
2022/04/15 03:09:13;;;;;;;16.63;4.93;;;;;;;;;;5012990;28;20547;-51
2022/04/15 03:11:40;;;;;;;18.70;5.40;;;;;;;;;;5013908;28;20041;-43
2022/04/15 03:14:08;;;;;;;14.07;6.22;;;;;;;;;;5013686;28;20042;-43
2022/04/15 03:16:36;;;;;;;17.58;4.93;;;;;;;;;;5011026;28;20030;-45
2022/04/15 03:19:03;;;;;;;14.05;5.35;;;;;;;;;;5013450;28;20122;-44
2022/04/15 03:21:31;;;;;;;16.45;6.13;;;;;;;;;;5013693;28;20064;-44
2022/04/15 03:23:59;;;;;;;21.50;5.32;;;;;;;;;;5013729;28;20034;-40
2022/04/15 03:26:26;;;;;;;12.48;4.38;;;;;;;;;;5013473;28;20084;-45
2022/04/15 03:28:54;;;;;;;12.15;4.60;;;;;;;;;;5013382;28;20107;-46
2022/04/15 03:31:22;;;;;;;14.20;5.40;;;;;;;;;;5013620;28;20033;-46
2022/04/15 03:33:49;;;;;;;14.30;4.80;;;;;;;;;;5012149;28;20116;-46
2022/04/15 03:36:18;;;;;;;15.23;5.10;;;;;;;;;;5012381;28;20033;-44
2022/04/15 03:38:46;;;;;;;8.82;4.25;;;;;;;;;;5010843;28;20073;-43
2022/04/15 03:41:13;;;;;;;13.43;4.47;;;;;;;;;;5012781;28;20092;-44
2022/04/15 03:43:40;;;;;;;12.88;4.38;;;;;;;;;;5004987;28;20045;-45
2022/04/15 03:46:07;;;;;;;17.67;5.13;;;;;;;;;;5012308;28;20033;-45
2022/04/15 03:48:34;;;;;;;12.70;4.80;;;;;;;;;;5014221;28;20030;-44
2022/04/15 03:51:01;;;;;;;13.88;4.40;;;;;;;;;;5014073;28;20515;-42
2022/04/15 03:53:28;;;;;;;14.20;4.22;;;;;;;;;;5013834;28;20446;-42
2022/04/15 03:55:55;;;;;;;15.25;4.55;;;;;;;;;;5013207;28;20117;-42
2022/04/15 03:58:22;;;;;;;12.00;4.18;;;;;;;;;;5014093;28;20034;-42
2022/04/15 04:00:49;;;;;;;11.57;3.42;;;;;;;;;;5014383;28;20025;-43
2022/04/15 04:03:16;;;;;;;11.25;4.20;;;;;;;;;;5014281;28;20342;-40
2022/04/15 04:05:43;;;;;;;18.50;4.97;;;;;;;;;;5014304;28;20040;-41
2022/04/15 04:08:10;;;;;;;18.05;4.40;;;;;;;;;;5014166;28;20079;-40
2022/04/15 04:10:37;;;;;;;8.73;3.97;;;;;;;;;;5014005;28;20033;-41
2022/04/15 04:13:05;;;;;;;12.70;4.20;;;;;;;;;;5013805;28;20054;-41
2022/04/15 04:15:32;;;;;;;13.02;3.97;;;;;;;;;;5014145;28;20038;-42
2022/04/15 04:18:00;;;;;;;13.85;3.95;;;;;;;;;;5014149;28;20033;-41
2022/04/15 04:20:27;;;;;;;9.38;3.72;;;;;;;;;;5013854;28;20044;-41
2022/04/15 04:22:54;;;;;;;8.80;3.30;;;;;;;;;;5014092;28;20026;-41
2022/04/15 04:25:21;;;;;;;9.45;3.65;;;;;;;;;;5013892;28;20026;-42
2022/04/15 04:27:49;;;;;;;12.57;3.72;;;;;;;;;;5013956;28;20026;-41
2022/04/15 04:30:16;;;;;;;8.80;3.40;;;;;;;;;;5013614;28;20017;-42
2022/04/15 04:32:49;;;;;;;8.43;3.60;;;;;;;;;;5013807;28;20038;-40
2022/04/15 04:35:17;;;;;;;8.05;3.70;;;;;;;;;;5013653;28;20109;-42
2022/04/15 04:37:45;;;;;;;9.20;3.65;;;;;;;;;;5013645;28;20041;-41
2022/04/15 04:40:12;;;;;;;10.95;3.92;;;;;;;;;;5013442;28;20045;-41
2022/04/15 04:42:40;;;;;;;7.43;3.75;;;;;;;;;;5013089;28;20057;-41
2022/04/15 04:45:10;;;;;;;7.25;3.58;;;;;;;;;;4995828;28;20030;-41
2022/04/15 04:47:38;;;;;;;8.38;4.07;;;;;;;;;;5013498;28;20044;-42
2022/04/15 04:50:08;;;;;;;8.02;3.40;;;;;;;;;;5013436;28;20022;-42
2022/04/15 04:52:36;;;;;;;9.05;3.90;;;;;;;;;;5013365;28;20034;-42
2022/04/15 04:55:04;;;;;;;8.27;3.28;;;;;;;;;;5013681;28;20460;-41
2022/04/15 04:57:31;;;;;;;8.50;3.63;;;;;;;;;;5012868;28;20030;-41
2022/04/15 04:59:58;;;;;;;8.32;4.25;;;;;;;;;;5012977;28;20069;-42
2022/04/15 05:02:25;;;;;;;7.53;3.30;;;;;;;;;;5013428;28;20383;-42
2022/04/15 05:04:52;;;;;;;7.78;3.70;;;;;;;;;;5013475;28;20439;-40
2022/04/15 05:07:19;;;;;;;7.50;3.65;;;;;;;;;;5013241;28;20026;-41
2022/04/15 05:09:46;;;;;;;7.05;3.30;;;;;;;;;;5013227;28;20021;-40
2022/04/15 05:12:13;;;;;;;9.88;3.60;;;;;;;;;;5013201;28;20061;-41
2022/04/15 05:14:40;;;;;;;7.50;3.63;;;;;;;;;;5013015;28;20072;-41
2022/04/15 05:17:07;;;;;;;8.05;3.33;;;;;;;;;;5013143;28;20068;-41
2022/04/15 05:19:34;;;;;;;8.02;3.20;;;;;;;;;;5012945;28;20134;-42
2022/04/15 05:22:01;;;;;;;8.65;3.45;;;;;;;;;;5013117;28;20076;-42
2022/04/15 05:24:28;;;;;;;10.80;3.55;;;;;;;;;;5013064;28;20120;-42
2022/04/15 05:26:55;;;;;;;7.93;2.83;;;;;;;;;;5013070;28;20472;-41
2022/04/15 05:29:22;;;;;;;9.02;3.05;;;;;;;;;;5012768;28;20025;-42
2022/04/15 05:31:49;;;;;;;8.38;3.38;;;;;;;;;;5012962;28;20033;-41
2022/04/15 05:34:16;;;;;;;5.55;2.95;;;;;;;;;;5012871;28;20052;-42
2022/04/15 05:36:43;;;;;;;6.32;2.88;;;;;;;;;;5012877;28;20029;-42
2022/04/15 05:39:10;;;;;;;7.28;2.88;;;;;;;;;;5012536;28;20120;-42
2022/04/15 05:41:37;;;;;;;7.78;3.25;;;;;;;;;;5012624;28;20089;-42
2022/04/15 05:44:04;;;;;;;8.35;3.15;;;;;;;;;;5012669;28;20522;-42
2022/04/15 05:46:32;;;;;;;6.75;3.03;;;;;;;;;;5012632;28;20033;-42
2022/04/15 05:48:59;;;;;;;8.00;2.83;;;;;;;;;;5012596;28;20076;-42
2022/04/15 05:51:26;;;;;;;8.40;3.38;;;;;;;;;;5012629;28;20036;-42
2022/04/15 05:53:53;;;;;;;8.32;3.92;;;;;;;;;;5012656;28;20087;-42
2022/04/15 05:56:20;;;;;;;7.97;3.90;;;;;;;;;;5012393;28;20465;-41
2022/04/15 05:58:47;;;;;;;5.28;3.05;;;;;;;;;;5012430;28;20034;-40
2022/04/15 06:01:14;;;;;;;7.57;3.85;;;;;;;;;;5012466;28;20030;-40
2022/04/15 06:03:41;;;;;;;5.07;3.20;;;;;;;;;;5012598;28;20431;-40
2022/04/15 06:06:08;;;;;;;7.03;3.75;;;;;;;;;;5012489;28;20696;-41
2022/04/15 06:08:35;;;;;;;6.88;3.25;;;;;;;;;;5012372;28;20030;-42
2022/04/15 06:11:02;;;;;;;6.38;3.92;;;;;;;;;;5012392;28;20440;-41
2022/04/15 06:13:29;;;;;;;5.65;3.47;;;;;;;;;;5012078;28;20403;-42
2022/04/15 06:15:58;;;;;;;6.07;3.00;;;;;;;;;;5012427;28;20042;-41
2022/04/15 06:18:26;;;;;;;5.50;3.63;;;;;;;;;;5012459;28;20092;-41
2022/04/15 06:20:53;;;;;;;5.90;3.40;;;;;;;;;;5016423;28;20028;-41
2022/04/15 06:23:21;;;;;;;5.95;3.22;;;;;;;;;;5016445;28;20036;-42
2022/04/15 06:25:48;;;;;;;5.03;3.33;;;;;;;;;;5016374;28;20483;-41
2022/04/15 06:28:16;;;;;;;6.93;2.83;;;;;;;;;;5016226;28;20480;-41
2022/04/15 06:30:43;;;;;;;6.55;3.33;;;;;;;;;;5016159;28;20026;-40
2022/04/15 06:33:10;;;;;;;5.82;3.42;;;;;;;;;;5016238;28;20061;-41
2022/04/15 06:35:39;;;;;;;5.38;3.10;;;;;;;;;;5016219;28;20030;-41
2022/04/15 06:38:06;;;;;;;4.78;2.90;;;;;;;;;;5015935;28;20046;-40
2022/04/15 06:40:34;;;;;;;5.45;2.85;;;;;;;;;;5014950;28;20038;-40
2022/04/15 06:43:01;;;;;;;6.57;3.25;;;;;;;;;;5015934;28;20072;-42
2022/04/15 06:45:28;;;;;;;4.22;2.63;;;;;;;;;;5016030;28;20067;-42
2022/04/15 06:47:55;;;;;;;5.30;2.83;;;;;;;;;;5015955;28;20032;-42
2022/04/15 06:50:22;;;;;;;4.68;2.70;;;;;;;;;;5015814;28;20377;-42
2022/04/15 06:52:49;;;;;;;6.22;2.88;;;;;;;;;;5014519;28;20033;-40
2022/04/15 06:55:16;;;;;;;4.47;2.47;;;;;;;;;;5015860;28;20038;-41
2022/04/15 06:57:43;;;;;;;3.42;2.42;;;;;;;;;;5015688;28;20022;-41
2022/04/15 07:00:14;;;;;;;3.85;2.17;;;;;;;;;;5015555;28;20120;-41
2022/04/15 07:02:42;;;;;;;4.30;2.55;;;;;;;;;;5015745;28;20026;-42
2022/04/15 07:05:09;;;;;;;4.80;2.83;;;;;;;;;;5014375;28;20399;-41
2022/04/15 07:07:40;;;;;;;4.70;2.05;;;;;;;;;;5015595;28;20087;-41
2022/04/15 07:10:08;;;;;;;6.95;2.45;;;;;;;;;;5015509;28;20052;-42
2022/04/15 07:12:35;;;;;;;4.40;2.28;;;;;;;;;;5015455;28;20479;-42
2022/04/15 07:15:03;;;;;;;4.13;2.38;;;;;;;;;;5015254;28;20053;-41
2022/04/15 07:17:30;;;;;;;5.32;2.60;;;;;;;;;;5015305;28;20546;-42
2022/04/15 07:19:57;;;;;;;3.78;2.30;;;;;;;;;;5015242;28;20484;-42
2022/04/15 07:22:24;;;;;;;5.95;2.30;;;;;;;;;;5015206;28;20038;-42
2022/04/15 07:24:51;;;;;;;3.53;2.30;;;;;;;;;;5015144;28;20380;-42
2022/04/15 07:27:18;;;;;;;3.70;2.05;;;;;;;;;;5015291;28;20026;-41
2022/04/15 07:29:47;;;;;;;4.15;2.70;;;;;;;;;;5014342;28;20384;-41
2022/04/15 07:32:21;;;;;;;3.00;2.30;;;;;;;;;;5014336;28;20095;-41
2022/04/15 07:34:48;;;;;;;5.25;2.53;;;;;;;;;;5014889;28;20034;-41
2022/04/15 07:37:15;;;;;;;4.50;2.45;;;;;;;;;;5014995;28;20538;-41
2022/04/15 07:39:42;;;;;;;3.05;2.05;;;;;;;;;;5014796;28;20048;-41
2022/04/15 07:42:11;;;;;;;3.72;2.20;;;;;;;;;;5014917;28;20061;-41
2022/04/15 07:44:41;;;;;;;6.18;3.28;;;;;;;;;;5014819;28;20041;-42
2022/04/15 07:47:09;;;;;;;3.08;2.35;;;;;;;;;;5013533;28;20034;-42
2022/04/15 07:49:36;;;;;;;3.58;2.42;;;;;;;;;;5014645;28;20051;-42
2022/04/15 07:52:08;;;;;;;3.70;2.30;;;;;;;;;;5014727;28;20428;-42
2022/04/15 07:54:35;;;;;;;3.43;1.93;;;;;;;;;;5014520;28;20038;-41
2022/04/15 07:57:03;;;;;;;2.10;1.67;;;;;;;;;;5014611;28;20034;-42
2022/04/15 07:59:30;;;;;;;3.95;2.20;;;;;;;;;;5013937;28;20042;-41
2022/04/15 08:01:58;;;;;;;3.63;1.90;;;;;;;;;;5014527;28;20060;-42
2022/04/15 08:04:26;;;;;;;4.18;2.25;;;;;;;;;;5014460;28;20108;-40
2022/04/15 08:06:53;;;;;;;3.10;2.22;;;;;;;;;;5014235;28;20038;-41
2022/04/15 08:09:20;;;;;;;5.28;2.15;;;;;;;;;;5014298;28;20022;-42
2022/04/15 08:11:48;;;;;;;2.70;1.80;;;;;;;;;;5014365;28;20097;-42
2022/04/15 08:14:15;;;;;;;2.95;1.70;;;;;;;;;;5014061;28;20439;-42
2022/04/15 08:16:42;;;;;;;3.63;2.03;;;;;;;;;;5014200;28;20052;-42
2022/04/15 08:19:09;;;;;;;3.67;2.08;;;;;;;;;;5014078;28;20042;-42
2022/04/15 08:21:36;;;;;;;2.92;1.77;;;;;;;;;;5014163;28;20033;-42
2022/04/15 08:24:03;;;;;;;3.13;2.08;;;;;;;;;;5014109;28;20084;-41
2022/04/15 08:26:30;;;;;;;2.88;1.90;;;;;;;;;;5013986;28;20384;-41
2022/04/15 08:28:57;;;;;;;4.10;1.88;;;;;;;;;;5013973;28;20053;-41
2022/04/15 08:31:24;;;;;;;2.50;1.98;;;;;;;;;;5013943;28;20080;-42
2022/04/15 08:33:52;;;;;;;2.40;1.63;;;;;;;;;;5012603;28;20491;-42
2022/04/15 08:36:19;;;;;;;3.35;1.83;;;;;;;;;;5013863;28;20033;-42
2022/04/15 08:38:46;;;;;;;2.90;1.92;;;;;;;;;;5013645;28;20034;-41
2022/04/15 08:41:14;;;;;;;2.72;1.75;;;;;;;;;;5013288;28;20384;-42
2022/04/15 08:43:42;;;;;;;2.80;2.00;;;;;;;;;;5013728;28;20038;-41
2022/04/15 08:46:09;;;;;;;4.20;2.22;;;;;;;;;;5013798;28;20073;-41
2022/04/15 08:48:38;;;;;;;4.57;1.52;;;;;;;;;;5013591;28;20025;-41
2022/04/15 08:51:05;;;;;;;4.20;1.17;;;;;;;;;;5013553;28;20037;-41
2022/04/15 08:53:32;;;;;;;2.75;1.05;;;;;;;;;;5013516;28;20492;-41
2022/04/15 08:55:59;;;;;;;2.33;1.20;;;;;;;;;;5013553;28;20030;-43
2022/04/15 08:58:29;;;;;;;2.30;1.05;;;;;;;;;;5013290;28;20042;-41
2022/04/15 09:00:56;;;;;;;2.30;1.00;;;;;;;;;;5013480;28;20042;-41
2022/04/15 09:03:23;;;;;;;3.35;1.60;;;;;;;;;;5013444;28;20036;-41
2022/04/15 09:05:51;;;;;;;2.30;1.17;;;;;;;;;;5013313;28;20456;-41
2022/04/15 09:08:18;;;;;;;2.42;1.30;;;;;;;;;;5013301;28;20034;-41
2022/04/15 09:10:54;;;;;;;1.98;1.00;;;;;;;;;;5013312;28;20030;-42
2022/04/15 09:13:22;;;;;;;2.63;1.10;;;;;;;;;;5012975;28;20104;-41
2022/04/15 09:15:50;;;;;;;2.78;1.40;;;;;;;;;;5013050;28;20045;-44
2022/04/15 09:18:30;;;;;;;2.30;0.98;;;;;;;;;;5012820;28;20042;-41
2022/04/15 09:21:17;;;;;;;3.50;1.30;;;;;;;;;;5013132;28;20038;-41
2022/04/15 09:23:48;;;;;;;1.55;0.80;;;;;;;;;;5013137;28;20033;-41
2022/04/15 09:26:15;;;;;;;1.73;0.93;;;;;;;;;;5012947;28;20044;-42
2022/04/15 09:28:42;;;;;;;2.78;1.20;;;;;;;;;;5012875;28;20038;-42
2022/04/15 09:31:15;;;;;;;1.70;1.00;;;;;;;;;;5012968;28;20026;-41
2022/04/15 09:34:01;;;;;;;3.38;1.02;;;;;;;;;;5012871;28;20025;-41
2022/04/15 09:36:33;;;;;;;2.42;1.17;;;;;;;;;;5012839;28;20093;-42
2022/04/15 09:39:01;;;;;;;1.63;1.13;;;;;;;;;;5012667;28;20038;-42
2022/04/15 09:41:29;;;;;;;2.10;0.80;;;;;;;;;;5012750;28;20076;-41
2022/04/15 09:44:01;;;;;;;3.38;1.08;;;;;;;;;;5012589;28;20049;-42
2022/04/15 09:46:29;;;;;;;1.65;1.02;;;;;;;;;;5012752;28;20048;-42
2022/04/15 09:49:06;;;;;;;2.85;1.83;;;;;;;;;;5012399;28;20699;-42
2022/04/15 09:51:45;;;;;;;3.45;1.35;;;;;;;;;;5012523;28;20052;-42
2022/04/15 09:54:23;;;;;;;1.95;1.42;;;;;;;;;;5011893;28;20034;-42
2022/04/15 09:56:51;;;;;;;1.35;1.15;;;;;;;;;;5012628;28;20030;-42
2022/04/15 09:59:21;;;;;;;1.75;1.50;;;;;;;;;;5012338;28;20045;-42
2022/04/15 10:01:49;;;;;;;2.75;1.92;;;;;;;;;;5012530;28;20037;-42
2022/04/15 10:04:16;;;;;;;2.45;1.75;;;;;;;;;;5012373;28;20034;-42
2022/04/15 10:06:44;;;;;;;2.38;1.35;;;;;;;;;;5012419;28;20030;-42
2022/04/15 10:09:11;;;;;;;6.55;1.67;;;;;;;;;;5012265;28;20038;-42
2022/04/15 10:11:40;;;;;;;2.30;1.70;;;;;;;;;;5012383;28;20034;-41
2022/04/15 10:14:08;;;;;;;1.88;1.55;;;;;;;;;;5012084;28;20081;-42
2022/04/15 10:16:35;;;;;;;1.67;1.42;;;;;;;;;;5012351;28;20044;-42
2022/04/15 10:19:02;;;;;;;1.83;1.52;;;;;;;;;;5012236;28;20038;-41
2022/04/15 10:21:32;;;;;;;1.85;1.48;;;;;;;;;;5012322;28;20480;-41
2022/04/15 10:24:01;;;;;;;2.33;1.60;;;;;;;;;;5012333;28;20038;-41
2022/04/15 10:26:33;;;;;;;2.30;1.40;;;;;;;;;;5012186;28;20045;-41
2022/04/15 10:29:02;;;;;;;2.10;1.42;;;;;;;;;;5012276;28;20037;-41
2022/04/15 10:31:37;;;;;;;1.95;1.35;;;;;;;;;;5012206;28;20053;-41
2022/04/15 10:34:11;;;;;;;1.50;1.33;;;;;;;;;;5012203;28;20507;-41
2022/04/15 10:36:38;;;;;;;1.67;1.58;;;;;;;;;;5012144;28;20077;-41
2022/04/15 10:39:06;;;;;;;2.50;1.40;;;;;;;;;;5011996;28;20085;-41
2022/04/15 10:41:42;;;;;;;1.98;1.27;;;;;;;;;;5012150;28;20117;-42
2022/04/15 10:44:13;;;;;;;2.42;1.40;;;;;;;;;;5012148;28;20025;-42
2022/04/15 10:46:40;;;;;;;1.50;1.40;;;;;;;;;;5011962;28;20037;-41
2022/04/15 10:49:36;;;;;;;1.85;1.52;;;;;;;;;;5012014;28;20022;-42
2022/04/15 10:52:24;;;;;;;1.77;0.95;;;;;;;;;;5003518;28;20052;-41
2022/04/15 10:54:52;;;;;;;1.63;1.15;;;;;;;;;;5011771;28;20040;-41
2022/04/15 10:57:19;;;;;;;1.60;1.40;;;;;;;;;;5012038;28;20033;-42
2022/04/15 11:03:02;;;;;;;1.33;1.20;;;;;;;;;;5012227;28;20451;-41
2022/04/15 11:05:35;;;;;;;1.63;1.23;;;;;;;;;;5012026;28;20092;-41
2022/04/15 11:08:01;;;;;;;;;;;;;;;;;;5015948;28;20022;-42
2022/04/15 11:10:45;;;;;;;1.60;1.38;;;;;;;;;;5015593;28;20438;-41
2022/04/15 11:13:32;;;;;;;2.63;1.55;;;;;;;;;;5015188;28;20037;-42
2022/04/15 11:16:18;;;;;;;1.33;1.10;;;;;;;;;;5015400;28;20388;-42
2022/04/15 11:18:51;;;;;;;1.92;1.35;;;;;;;;;;5015069;28;20064;-42
2022/04/15 11:21:22;;;;;;;1.70;1.23;;;;;;;;;;5013972;28;20176;-42
2022/04/15 11:23:53;;;;;;;2.22;1.50;;;;;;;;;;5015291;28;20054;-42
2022/04/15 11:26:24;;;;;;;2.72;1.25;;;;;;;;;;5015245;28;20029;-41
2022/04/15 11:28:52;;;;;;;2.47;1.38;;;;;;;;;;5013924;28;21198;-41
2022/04/15 11:31:32;;;;;;;1.70;1.40;;;;;;;;;;5015179;28;20037;-41
2022/04/15 11:34:05;;;;;;;3.45;1.55;;;;;;;;;;5015007;28;20033;-42
2022/04/15 11:36:36;;;;;;;1.63;1.10;;;;;;;;;;5014937;28;20424;-41
2022/04/15 11:39:04;;;;;;;1.30;1.20;;;;;;;;;;5014793;28;20038;-41
2022/04/15 11:41:31;;;;;;;2.10;1.48;;;;;;;;;;5014926;28;20219;-41
2022/04/15 11:44:00;;;;;;;2.17;1.00;;;;;;;;;;4997699;28;20080;-41
2022/04/15 11:46:49;;;;;;;2.25;1.20;;;;;;;;;;5014822;28;20022;-42
2022/04/15 11:49:27;;;;;;;1.73;0.98;;;;;;;;;;5014744;28;20021;-41
2022/04/15 11:51:55;;;;;;;1.13;0.90;;;;;;;;;;5014714;28;20034;-42
2022/04/15 11:54:23;;;;;;;1.83;1.30;;;;;;;;;;5014622;28;20559;-41
2022/04/15 11:56:54;;;;;;;2.08;1.38;;;;;;;;;;5014612;28;20076;-43
2022/04/15 11:59:21;;;;;;;2.30;1.58;;;;;;;;;;5014080;28;20120;-41
2022/04/15 12:01:48;;;;;;;1.60;1.15;;;;;;;;;;5013522;28;20415;-41
2022/04/15 12:04:17;;;;;;;3.13;1.08;;;;;;;;;;5014298;28;20030;-41
2022/04/15 12:06:44;;;;;;;2.85;0.95;;;;;;;;;;5014249;28;20026;-41
2022/04/15 12:09:12;;;;;;;1.85;1.35;;;;;;;;;;5013463;28;20116;-42
2022/04/15 12:11:39;;;;;;;3.38;1.23;;;;;;;;;;5006080;28;20499;-40
2022/04/15 12:14:07;;;;;;;1.40;1.30;;;;;;;;;;5013765;28;20134;-42
2022/04/15 12:16:35;;;;;;;2.47;1.38;;;;;;;;;;5013241;28;20061;-41
2022/04/15 12:19:03;;;;;;;1.50;1.13;;;;;;;;;;5013843;28;20113;-41
2022/04/15 12:21:31;;;;;;;2.13;1.30;;;;;;;;;;5013851;28;20508;-41
2022/04/15 12:24:05;;;;;;;2.97;1.20;;;;;;;;;;5013890;28;20026;-40
2022/04/15 12:26:45;;;;;;;1.73;1.30;;;;;;;;;;5013871;28;20029;-41
2022/04/15 12:32:16;;;;;;;3.13;1.10;;;;;;;;;;5013764;28;20084;-42
2022/04/15 12:34:45;;;;;;;2.33;1.15;;;;;;;;;;5013576;28;20026;-42
2022/04/15 12:37:31;;;;;;;1.50;1.05;;;;;;;;;;5013141;28;20034;-42
2022/04/15 12:39:58;;;;;;;2.55;1.00;;;;;;;;;;5013176;28;20124;-42
2022/04/15 12:42:29;;;;;;;1.30;1.15;;;;;;;;;;5013613;28;20026;-42
2022/04/15 12:44:56;;;;;;;1.55;1.30;;;;;;;;;;5013403;28;20030;-42
2022/04/15 12:47:26;;;;;;;3.00;1.20;;;;;;;;;;5013568;28;20049;-42
2022/04/15 12:49:54;;;;;;;2.33;0.90;;;;;;;;;;5013522;28;20076;-42
2022/04/15 12:52:22;;;;;;;1.95;1.02;;;;;;;;;;5013347;28;20026;-42
2022/04/15 12:54:56;;;;;;;1.45;1.10;;;;;;;;;;5013642;28;20018;-42
2022/04/15 12:57:23;;;;;;;2.33;1.35;;;;;;;;;;5013534;28;20034;-41
2022/04/15 12:59:51;;;;;;;1.10;0.75;;;;;;;;;;5013397;28;20065;-40
2022/04/15 13:02:18;;;;;;;1.67;1.00;;;;;;;;;;5013250;28;20105;-41
2022/04/15 13:04:54;;;;;;;2.50;1.40;;;;;;;;;;5013307;28;20022;-41
2022/04/15 13:07:21;;;;;;;1.38;0.90;;;;;;;;;;5013350;28;20037;-41
2022/04/15 13:09:49;;;;;;;0.98;0.88;;;;;;;;;;5013243;28;20534;-41
2022/04/15 13:12:19;;;;;;;2.90;1.30;;;;;;;;;;5013248;28;20125;-41
2022/04/15 13:14:46;;;;;;;1.30;1.00;;;;;;;;;;5012911;28;20053;-42
2022/04/15 13:17:13;;;;;;;2.45;1.30;;;;;;;;;;5013124;28;20104;-42
2022/04/15 13:19:43;;;;;;;2.00;1.35;;;;;;;;;;5012965;28;20100;-41
2022/04/15 13:22:10;;;;;;;1.90;1.05;;;;;;;;;;5012987;28;20030;-41
2022/04/15 13:24:38;;;;;;;2.38;1.45;;;;;;;;;;5012881;28;20399;-41
2022/04/15 13:27:05;;;;;;;2.15;1.38;;;;;;;;;;5011004;28;20058;-44
2022/04/15 13:29:32;;;;;;;2.70;1.58;;;;;;;;;;5011527;28;20037;-40
2022/04/15 13:32:00;;;;;;;2.33;1.63;;;;;;;;;;5012390;28;20057;-41
2022/04/15 13:34:32;;;;;;;3.50;1.95;;;;;;;;;;5011958;28;20048;-41
2022/04/15 13:36:59;;;;;;;;;;;;;;;;;;5012174;28;20033;-41
2022/04/15 13:39:26;;;;;;;3.97;2.70;;;;;;;;;;5012031;28;19959;-42
2022/04/15 13:41:53;;;;;;;4.65;2.75;;;;;;;;;;5011998;28;20095;-41
2022/04/15 13:44:20;;;;;;;6.22;2.78;;;;;;;;;;5009100;28;20519;-42
2022/04/15 13:46:47;;;;;;;5.07;3.10;;;;;;;;;;5019202;28;20066;-40
2022/04/15 13:49:14;;;;;;;5.30;3.42;;;;;;;;;;5019658;28;20030;-42
2022/04/15 13:51:41;;;;;;;5.53;3.58;;;;;;;;;;5028265;28;20060;-41
2022/04/15 13:59:35;;;;;;;12.30;4.80;;;;;;;;;;4989059;28;20416;-40
2022/04/15 14:02:02;;;;;;;10.73;6.40;;;;;;;;;;4992195;28;20062;-39
2022/04/15 14:04:29;;;;;;;10.80;7.22;;;;;;;;;;4992568;28;20061;-39
2022/04/15 14:06:56;;;;;;;19.40;8.80;;;;;;;;;;4992418;28;20054;-41
2022/04/15 14:09:23;;;;;;;16.73;8.40;;;;;;;;;;4991053;28;20034;-42
2022/04/15 14:11:51;;;;;;;15.68;8.40;;;;;;;;;;4992598;28;20034;-42
2022/04/15 14:14:18;;;;;;;20.67;8.93;;;;;;;;;;4992308;28;20030;-41
2022/04/15 14:16:45;;;;;;;15.27;8.45;;;;;;;;;;4991011;28;20476;-39
2022/04/15 14:19:13;;;;;;;13.98;7.50;;;;;;;;;;4992523;28;20034;-40
2022/04/15 14:21:40;;;;;;;15.93;7.75;;;;;;;;;;4992178;28;20022;-42
2022/04/15 14:24:08;;;;;;;13.77;7.60;;;;;;;;;;4992278;28;20443;-42
2022/04/15 14:26:35;;;;;;;13.32;7.90;;;;;;;;;;4992445;28;20388;-42
2022/04/15 14:29:03;;;;;;;16.75;8.60;;;;;;;;;;4991791;28;20037;-40
2022/04/15 14:31:30;;;;;;;13.63;7.22;;;;;;;;;;4992260;28;20100;-42
2022/04/15 14:33:57;;;;;;;16.48;7.45;;;;;;;;;;4992384;28;20034;-41
2022/04/15 14:36:26;;;;;;;16.42;6.93;;;;;;;;;;4992079;28;20041;-39
2022/04/15 14:38:54;;;;;;;12.13;7.30;;;;;;;;;;4992074;28;20113;-39
2022/04/15 14:41:21;;;;;;;12.25;6.85;;;;;;;;;;4995723;28;20030;-39
2022/04/15 14:43:47;;;;;;;17.08;6.50;;;;;;;;;;4995784;28;20066;-40
2022/04/15 14:46:15;;;;;;;13.73;6.40;;;;;;;;;;4996351;28;20034;-41
2022/04/15 14:48:46;;;;;;;14.85;5.93;;;;;;;;;;4985587;28;20385;-42
2022/04/15 14:51:14;;;;;;;14.77;6.32;;;;;;;;;;4994967;28;20822;-42
2022/04/15 14:53:41;;;;;;;14.43;6.38;;;;;;;;;;4996038;28;20041;-42
2022/04/15 14:56:08;;;;;;;13.07;6.03;;;;;;;;;;4996070;28;20203;-40
2022/04/15 14:58:35;;;;;;;15.32;6.32;;;;;;;;;;5004272;28;20108;-40